Time;durP1;ratioP1;P1;durP2;ratioP2;P2;SDS_P1;SDS_P2;PMS_P1;PMS_P2;Temp;Humidity;BMP_temperature;BMP_pressure;BME280_temperature;BME280_humidity;BME280_pressure;Samples;Min_cycle;Max_cycle;Signal;HPM_P1;HPM_P2
2020/12/05 00:00:58;;;;;;;28.30;14.88;;;3.70;99.90;;;;;;5033375;28;20013;-71
2020/12/05 00:03:23;;;;;;;24.63;13.93;;;3.60;99.90;;;;;;5035385;28;20040;-72
2020/12/05 00:05:49;;;;;;;26.20;14.15;;;3.60;99.90;;;;;;5016068;28;20040;-71
2020/12/05 00:08:15;;;;;;;28.02;15.68;;;3.60;99.90;;;;;;5030546;28;20033;-71
2020/12/05 00:10:43;;;;;;;26.85;14.85;;;3.60;99.90;;;;;;5029019;28;20030;-71
2020/12/05 00:13:08;;;;;;;23.70;14.23;;;3.60;99.90;;;;;;5036855;28;20610;-71
2020/12/05 00:15:34;;;;;;;25.65;14.52;;;3.60;99.90;;;;;;5030051;28;20033;-71
2020/12/05 00:18:02;;;;;;;25.95;14.25;;;3.60;99.90;;;;;;5030628;28;20424;-71
2020/12/05 00:20:28;;;;;;;26.20;14.73;;;3.60;99.90;;;;;;5030783;28;20102;-72
2020/12/05 00:22:56;;;;;;;27.65;14.98;;;3.60;99.90;;;;;;5032116;28;20111;-71
2020/12/05 00:25:22;;;;;;;27.00;15.18;;;3.60;99.90;;;;;;5032018;28;20112;-71
2020/12/05 00:27:47;;;;;;;29.55;16.05;;;3.60;99.90;;;;;;5034512;28;20175;-72
2020/12/05 00:30:15;;;;;;;24.63;14.38;;;3.60;99.90;;;;;;5028201;28;20033;-71
2020/12/05 00:32:41;;;;;;;30.55;15.85;;;3.60;99.90;;;;;;5031231;28;20127;-71
2020/12/05 00:35:07;;;;;;;27.70;15.23;;;3.60;99.90;;;;;;5032236;28;20065;-71
2020/12/05 00:37:32;;;;;;;29.33;15.93;;;3.60;99.90;;;;;;5028653;28;20064;-71
2020/12/05 00:40:00;;;;;;;28.52;15.70;;;3.50;99.90;;;;;;5031200;28;20029;-71
2020/12/05 00:42:26;;;;;;;26.17;15.00;;;3.50;99.90;;;;;;5033973;28;20028;-71
2020/12/05 00:44:56;;;;;;;30.42;16.80;;;3.60;99.90;;;;;;5030740;28;20051;-71
2020/12/05 00:47:22;;;;;;;31.23;16.40;;;3.60;99.90;;;;;;5029498;28;20033;-71
2020/12/05 00:49:48;;;;;;;32.40;17.27;;;3.60;99.90;;;;;;5030919;28;20691;-71
2020/12/05 00:52:13;;;;;;;30.52;17.17;;;3.50;99.90;;;;;;5030040;28;20358;-71
2020/12/05 00:54:39;;;;;;;31.85;17.25;;;3.50;99.90;;;;;;5027206;28;20647;-71
2020/12/05 00:57:05;;;;;;;27.40;14.90;;;3.50;99.90;;;;;;5026300;28;20088;-72
2020/12/05 00:59:33;;;;;;;30.70;16.75;;;3.50;99.90;;;;;;5030041;28;20040;-72
2020/12/05 01:02:01;;;;;;;31.08;16.23;;;3.50;99.90;;;;;;5032497;28;20042;-72
2020/12/05 01:04:28;;;;;;;26.67;15.57;;;3.50;99.90;;;;;;5029752;28;20120;-71
2020/12/05 01:06:54;;;;;;;29.83;16.08;;;3.50;99.90;;;;;;5027149;28;20055;-71
2020/12/05 01:09:22;;;;;;;29.45;15.63;;;3.50;99.90;;;;;;5028370;28;20417;-71
2020/12/05 01:11:48;;;;;;;29.95;15.45;;;3.50;99.90;;;;;;5031908;28;20595;-71
2020/12/05 01:14:13;;;;;;;28.67;16.17;;;3.50;99.90;;;;;;5029149;28;20022;-72
2020/12/05 01:16:39;;;;;;;28.63;15.77;;;3.50;99.90;;;;;;5031079;28;20064;-72
2020/12/05 01:19:05;;;;;;;26.05;14.25;;;3.50;99.90;;;;;;5031679;28;20063;-71
2020/12/05 01:21:31;;;;;;;28.85;15.60;;;3.50;99.90;;;;;;5036595;28;20033;-72
2020/12/05 01:23:59;;;;;;;24.90;15.13;;;3.50;99.90;;;;;;5030562;28;20030;-72
2020/12/05 01:26:27;;;;;;;26.63;14.85;;;3.60;99.90;;;;;;5032044;28;20049;-72
2020/12/05 01:28:55;;;;;;;31.92;15.85;;;3.60;99.90;;;;;;5018938;28;20107;-71
2020/12/05 01:31:20;;;;;;;25.52;14.98;;;3.60;99.90;;;;;;5032611;28;20028;-72
2020/12/05 01:33:46;;;;;;;25.33;14.55;;;3.60;99.90;;;;;;5032077;28;20033;-75
2020/12/05 01:36:13;;;;;;;28.90;14.98;;;3.60;99.90;;;;;;5029028;28;20048;-72
2020/12/05 01:38:39;;;;;;;25.08;13.93;;;3.60;99.90;;;;;;5029908;28;20028;-72
2020/12/05 01:41:05;;;;;;;26.30;14.00;;;3.50;99.90;;;;;;5028844;28;20069;-72
2020/12/05 01:43:34;;;;;;;26.17;15.05;;;3.50;99.90;;;;;;5032089;28;20104;-71
2020/12/05 01:46:07;;;;;;;27.35;15.38;;;3.50;99.90;;;;;;5029644;28;20120;-72
2020/12/05 01:48:33;;;;;;;25.85;14.05;;;3.50;99.90;;;;;;5029077;28;20029;-72
2020/12/05 01:50:59;;;;;;;26.30;15.38;;;3.50;99.90;;;;;;4683047;28;10000557;-72
2020/12/05 01:53:27;;;;;;;26.50;14.65;;;3.50;99.90;;;;;;5031031;28;20038;-72
2020/12/05 01:55:52;;;;;;;25.35;14.57;;;3.50;99.90;;;;;;5032609;28;20174;-72
2020/12/05 01:58:18;;;;;;;25.90;13.60;;;3.50;99.90;;;;;;5032158;28;20018;-71
2020/12/05 02:00:47;;;;;;;30.40;15.32;;;3.50;99.90;;;;;;5031285;28;20033;-72
2020/12/05 02:03:16;;;;;;;22.65;13.23;;;3.50;99.90;;;;;;5032038;28;20049;-72
2020/12/05 02:06:10;;;;;;;24.20;13.90;;;3.50;99.90;;;;;;5029193;28;20037;-71
2020/12/05 02:09:14;;;;;;;31.48;17.48;;;3.50;99.90;;;;;;5029783;28;20537;-71
2020/12/05 02:11:41;;;;;;;27.08;15.07;;;3.50;99.90;;;;;;5030696;28;20026;-71
2020/12/05 02:14:09;;;;;;;25.88;14.10;;;3.50;99.90;;;;;;5016421;28;20367;-71
2020/12/05 02:16:34;;;;;;;23.35;13.32;;;3.50;99.90;;;;;;5028595;28;20051;-71
2020/12/05 02:19:00;;;;;;;28.63;15.65;;;3.50;99.90;;;;;;5027716;28;20443;-71
2020/12/05 02:21:29;;;;;;;32.60;16.67;;;3.40;99.90;;;;;;5046539;28;20421;-71
2020/12/05 02:23:57;;;;;;;33.47;17.42;;;3.40;99.90;;;;;;5034449;28;20358;-71
2020/12/05 02:26:28;;;;;;;32.22;17.08;;;3.40;99.90;;;;;;5030381;28;20076;-71
2020/12/05 02:28:56;;;;;;;26.95;15.10;;;3.40;99.90;;;;;;5030090;28;20080;-71
2020/12/05 02:31:24;;;;;;;32.00;17.17;;;3.40;99.90;;;;;;5029394;28;20021;-71
2020/12/05 02:33:50;;;;;;;32.75;16.85;;;3.30;99.90;;;;;;5031506;28;20029;-71
2020/12/05 02:36:15;;;;;;;30.77;15.88;;;3.30;99.90;;;;;;5030112;28;20372;-71
2020/12/05 02:39:00;;;;;;;25.45;14.77;;;3.30;99.90;;;;;;5031538;28;20075;-72
2020/12/05 02:41:26;;;;;;;28.27;15.75;;;3.30;99.90;;;;;;5030937;28;20084;-72
2020/12/05 02:43:52;;;;;;;23.45;12.88;;;3.30;99.90;;;;;;5036352;28;20053;-72
2020/12/05 02:46:20;;;;;;;28.23;16.00;;;3.30;99.90;;;;;;5032812;28;20045;-72
2020/12/05 02:48:46;;;;;;;25.95;14.40;;;3.30;99.90;;;;;;5034792;28;20130;-72
2020/12/05 02:51:14;;;;;;;31.17;16.73;;;3.20;99.90;;;;;;5036783;28;20037;-72
2020/12/05 02:53:42;;;;;;;30.08;16.30;;;3.20;99.90;;;;;;5033445;28;20022;-72
2020/12/05 02:56:13;;;;;;;33.33;17.58;;;3.20;99.90;;;;;;5033847;28;20081;-72
2020/12/05 02:58:42;;;;;;;33.53;17.55;;;3.10;99.90;;;;;;5022505;28;20030;-72
2020/12/05 03:01:08;;;;;;;32.22;16.35;;;3.10;99.90;;;;;;5031778;28;20540;-72
2020/12/05 03:03:33;;;;;;;33.97;17.65;;;3.10;99.90;;;;;;5030781;28;20036;-72
2020/12/05 03:05:59;;;;;;;36.08;18.77;;;3.10;99.90;;;;;;5031173;28;20025;-72
2020/12/05 03:08:25;;;;;;;32.83;16.98;;;3.10;99.90;;;;;;5030597;28;20053;-72
2020/12/05 03:10:50;;;;;;;33.35;18.38;;;3.10;99.90;;;;;;5030569;28;20021;-72
2020/12/05 03:13:18;;;;;;;37.25;18.83;;;3.10;99.90;;;;;;5033439;28;20036;-72
2020/12/05 03:15:44;;;;;;;37.08;19.33;;;3.10;99.90;;;;;;5030614;28;20462;-71
2020/12/05 03:18:12;;;;;;;37.38;18.67;;;3.10;99.90;;;;;;5033764;28;20033;-72
2020/12/05 03:20:38;;;;;;;34.28;18.80;;;3.10;99.90;;;;;;5032424;28;20053;-71
2020/12/05 03:23:03;;;;;;;32.08;18.10;;;3.10;99.90;;;;;;5030661;28;20068;-72
2020/12/05 03:25:29;;;;;;;31.00;17.27;;;3.10;99.90;;;;;;5032056;28;20125;-72
2020/12/05 03:27:57;;;;;;;33.47;17.33;;;3.10;99.90;;;;;;5028876;28;20056;-72
2020/12/05 03:30:23;;;;;;;30.48;16.70;;;3.10;99.90;;;;;;5033828;28;20018;-71
2020/12/05 03:32:49;;;;;;;35.90;17.60;;;3.10;99.90;;;;;;5031050;28;20055;-72
2020/12/05 03:35:14;;;;;;;36.85;18.42;;;3.10;99.90;;;;;;5037976;28;20022;-72
2020/12/05 03:37:43;;;;;;;34.55;17.75;;;3.00;99.90;;;;;;5030494;28;20029;-72
2020/12/05 03:40:08;;;;;;;35.50;18.35;;;3.00;99.90;;;;;;5018924;28;20073;-72
2020/12/05 03:42:34;;;;;;;33.30;17.35;;;3.00;99.90;;;;;;5036400;28;20061;-72
2020/12/05 03:45:02;;;;;;;35.63;18.27;;;3.10;99.90;;;;;;5028051;28;20063;-72
2020/12/05 03:47:27;;;;;;;31.02;16.40;;;3.10;99.90;;;;;;5034226;28;20075;-72
2020/12/05 03:49:53;;;;;;;33.83;18.17;;;3.10;99.90;;;;;;5033320;28;20454;-72
2020/12/05 03:52:19;;;;;;;31.65;16.98;;;3.00;99.90;;;;;;5036994;28;20025;-72
2020/12/05 03:54:44;;;;;;;29.38;16.52;;;3.10;99.90;;;;;;5035039;28;20025;-72
2020/12/05 03:57:10;;;;;;;33.95;18.38;;;3.00;99.90;;;;;;5033369;28;20033;-72
2020/12/05 03:59:36;;;;;;;33.90;18.00;;;3.10;99.90;;;;;;5026176;28;20038;-72
2020/12/05 04:02:01;;;;;;;35.95;18.35;;;3.10;99.90;;;;;;5033635;28;20373;-72
2020/12/05 04:04:32;;;;;;;37.03;18.42;;;3.10;99.90;;;;;;5029895;28;20565;-72
2020/12/05 04:07:02;;;;;;;30.88;17.52;;;3.10;99.90;;;;;;5033116;28;20041;-72
2020/12/05 04:09:28;;;;;;;37.45;19.58;;;3.10;99.90;;;;;;5033779;28;20084;-72
2020/12/05 04:11:54;;;;;;;35.28;18.60;;;3.00;99.90;;;;;;5033750;28;20038;-72
2020/12/05 04:14:19;;;;;;;37.70;20.13;;;3.00;99.90;;;;;;5030724;28;20107;-72
2020/12/05 04:16:52;;;;;;;43.15;21.10;;;3.00;99.90;;;;;;5029265;28;20033;-72
2020/12/05 04:19:23;;;;;;;47.13;22.92;;;3.00;99.90;;;;;;5031732;28;20121;-72
2020/12/05 04:21:49;;;;;;;40.20;20.38;;;3.00;99.90;;;;;;5031820;28;20674;-72
2020/12/05 04:24:16;;;;;;;46.75;22.02;;;3.00;99.90;;;;;;5037171;28;20056;-72
2020/12/05 04:26:41;;;;;;;43.45;21.50;;;3.00;99.90;;;;;;5034443;28;20054;-72
2020/12/05 04:29:07;;;;;;;43.17;21.83;;;3.00;99.90;;;;;;5034484;28;20033;-73
2020/12/05 04:31:32;;;;;;;39.80;20.25;;;3.00;99.90;;;;;;5034144;28;20026;-72
2020/12/05 04:33:58;;;;;;;46.20;21.35;;;3.10;99.90;;;;;;5034680;28;20054;-73
2020/12/05 04:36:26;;;;;;;41.50;20.85;;;3.10;99.90;;;;;;5033660;28;20540;-73
2020/12/05 04:38:52;;;;;;;39.78;20.25;;;3.10;99.90;;;;;;5030042;28;20435;-72
2020/12/05 04:41:21;;;;;;;44.13;21.50;;;3.10;99.90;;;;;;5027980;28;20049;-72
2020/12/05 04:43:47;;;;;;;42.92;22.10;;;3.10;99.90;;;;;;5031804;28;20037;-73
2020/12/05 04:46:12;;;;;;;41.30;20.88;;;3.00;99.90;;;;;;5034285;28;20100;-72
2020/12/05 04:48:38;;;;;;;39.42;20.30;;;3.00;99.90;;;;;;5035113;28;20123;-72
2020/12/05 04:51:04;;;;;;;47.53;22.70;;;3.10;99.90;;;;;;5021478;28;20029;-72
2020/12/05 04:53:30;;;;;;;41.40;19.95;;;3.10;99.90;;;;;;5046469;28;20121;-72
2020/12/05 04:55:58;;;;;;;38.67;19.67;;;3.00;99.90;;;;;;5038193;28;20037;-72
2020/12/05 04:58:24;;;;;;;34.80;17.42;;;3.00;99.90;;;;;;5034861;28;20168;-72
2020/12/05 05:00:57;;;;;;;31.58;17.25;;;3.00;99.90;;;;;;5033913;28;20512;-73
2020/12/05 05:03:23;;;;;;;35.55;17.63;;;3.00;99.90;;;;;;5015699;28;20058;-72
2020/12/05 05:05:55;;;;;;;35.83;18.42;;;3.00;99.90;;;;;;5030952;28;20022;-72
2020/12/05 05:08:24;;;;;;;31.05;18.15;;;3.10;99.90;;;;;;5031052;28;20462;-72
2020/12/05 05:11:07;;;;;;;33.55;17.63;;;3.10;99.90;;;;;;5033629;28;20129;-72
2020/12/05 05:14:13;;;;;;;32.63;16.92;;;3.10;99.90;;;;;;5030706;28;20040;-72
2020/12/05 05:16:44;;;;;;;41.55;21.27;;;3.10;99.90;;;;;;5001179;28;20056;-72
2020/12/05 05:19:22;;;;;;;35.45;18.60;;;3.10;99.90;;;;;;5031861;28;20040;-72
2020/12/05 05:21:48;;;;;;;46.17;21.45;;;3.10;99.90;;;;;;5030062;28;20499;-72
2020/12/05 05:24:15;;;;;;;59.40;24.77;;;3.10;99.90;;;;;;5029933;28;20044;-72
2020/12/05 05:26:42;;;;;;;44.20;22.20;;;3.10;99.90;;;;;;5033518;28;20474;-72
2020/12/05 05:29:28;;;;;;;42.33;20.98;;;3.00;99.90;;;;;;5031963;28;20033;-72
2020/12/05 05:32:01;;;;;;;37.08;19.48;;;3.00;99.90;;;;;;5031018;28;20190;-73
2020/12/05 05:34:28;;;;;;;41.20;21.55;;;3.00;99.90;;;;;;5030214;28;20477;-72
2020/12/05 05:36:54;;;;;;;33.90;17.92;;;3.00;99.90;;;;;;5028634;28;20197;-72
2020/12/05 05:39:20;;;;;;;37.03;20.50;;;3.00;99.90;;;;;;5033650;28;20029;-73
2020/12/05 05:41:50;;;;;;;37.92;20.25;;;3.00;99.90;;;;;;5028961;28;20492;-72
2020/12/05 05:44:27;;;;;;;34.63;19.17;;;3.10;99.90;;;;;;5035487;28;20025;-72
2020/12/05 05:46:52;;;;;;;36.88;20.25;;;3.10;99.90;;;;;;5028634;28;20378;-72
2020/12/05 05:49:31;;;;;;;40.65;20.67;;;3.00;99.90;;;;;;5032426;28;20033;-72
2020/12/05 05:52:00;;;;;;;35.25;20.05;;;3.10;99.90;;;;;;5047530;28;20497;-72
2020/12/05 05:54:30;;;;;;;35.72;19.45;;;3.10;99.90;;;;;;5024223;28;20036;-72
2020/12/05 05:57:07;;;;;;;38.65;20.88;;;3.00;99.90;;;;;;5036667;28;20031;-72
2020/12/05 05:59:45;;;;;;;44.05;21.85;;;3.00;99.90;;;;;;5033395;28;20168;-72
2020/12/05 06:02:13;;;;;;;36.85;19.80;;;3.00;99.90;;;;;;5029400;28;20386;-72
2020/12/05 06:04:43;;;;;;;37.13;19.80;;;3.00;99.90;;;;;;5029928;28;20029;-72
2020/12/05 06:07:14;;;;;;;45.50;22.38;;;3.00;99.90;;;;;;5046969;28;20037;-72
2020/12/05 06:09:52;;;;;;;46.72;21.45;;;2.90;99.90;;;;;;5032266;28;20041;-72
2020/12/05 06:12:26;;;;;;;37.28;20.35;;;2.90;99.90;;;;;;5030865;28;20018;-72
2020/12/05 06:14:52;;;;;;;79.18;24.20;;;2.90;99.90;;;;;;5029804;28;20048;-73
2020/12/05 06:17:18;;;;;;;47.97;22.23;;;2.90;99.90;;;;;;5034332;28;20049;-72
2020/12/05 06:19:45;;;;;;;40.17;20.92;;;2.90;99.90;;;;;;5050039;28;20135;-72
2020/12/05 06:22:23;;;;;;;44.78;21.17;;;2.90;99.90;;;;;;5033425;28;20041;-72
2020/12/05 06:24:58;;;;;;;37.65;19.75;;;2.90;99.90;;;;;;5038725;28;20490;-72
2020/12/05 06:27:25;;;;;;;40.95;21.85;;;2.90;99.90;;;;;;5036917;28;20076;-72
2020/12/05 06:29:51;;;;;;;40.75;21.13;;;2.90;99.90;;;;;;5036602;28;20020;-72
2020/12/05 06:32:36;;;;;;;59.15;24.30;;;2.90;99.90;;;;;;5052757;28;20029;-72
2020/12/05 06:35:02;;;;;;;45.53;21.83;;;2.80;99.90;;;;;;5039503;28;20080;-72
2020/12/05 06:37:32;;;;;;;56.55;24.58;;;2.80;99.90;;;;;;5031688;28;20057;-72
2020/12/05 06:40:04;;;;;;;43.65;21.73;;;2.80;99.90;;;;;;5030364;28;20036;-72
2020/12/05 06:42:37;;;;;;;51.53;24.75;;;2.90;99.90;;;;;;5035490;28;20037;-72
2020/12/05 06:45:05;;;;;;;55.50;24.63;;;2.90;99.90;;;;;;5035033;28;20021;-72
2020/12/05 06:47:31;;;;;;;49.45;23.70;;;2.90;99.90;;;;;;5033400;28;20639;-72
2020/12/05 06:49:57;;;;;;;47.20;24.33;;;2.90;99.90;;;;;;5036191;28;20025;-72
2020/12/05 06:52:25;;;;;;;46.53;22.38;;;2.90;99.90;;;;;;5012867;28;20025;-72
2020/12/05 06:55:00;;;;;;;57.78;25.58;;;2.90;99.90;;;;;;5034430;28;20022;-72
2020/12/05 06:57:31;;;;;;;47.63;23.42;;;3.00;99.90;;;;;;5033494;28;20041;-72
2020/12/05 07:00:22;;;;;;;46.28;22.50;;;3.00;99.90;;;;;;5018978;28;20049;-72
2020/12/05 07:03:02;;;;;;;48.07;24.10;;;3.00;99.90;;;;;;5018414;28;20029;-72
2020/12/05 07:05:37;;;;;;;51.83;21.75;;;3.00;99.90;;;;;;5027150;28;20116;-72
2020/12/05 07:08:27;;;;;;;42.72;22.08;;;3.00;99.90;;;;;;5029183;28;20367;-72
2020/12/05 07:11:00;;;;;;;40.35;21.13;;;3.00;99.90;;;;;;5034639;28;20029;-72
2020/12/05 07:13:29;;;;;;;45.85;22.77;;;3.00;99.90;;;;;;5019720;28;20025;-72
2020/12/05 07:16:15;;;;;;;54.10;24.67;;;3.00;99.90;;;;;;5033620;28;20018;-72
2020/12/05 07:18:45;;;;;;;55.70;26.08;;;3.00;99.90;;;;;;5037388;28;20052;-72
2020/12/05 07:21:11;;;;;;;45.08;21.77;;;3.00;99.90;;;;;;5029633;28;20021;-72
2020/12/05 07:23:37;;;;;;;41.42;21.17;;;3.00;99.90;;;;;;5031916;28;20040;-72
2020/12/05 07:26:03;;;;;;;42.38;21.80;;;3.10;99.90;;;;;;5035322;28;20455;-72
2020/12/05 07:28:31;;;;;;;51.13;25.30;;;3.10;99.90;;;;;;5035724;28;20049;-72
2020/12/05 07:30:57;;;;;;;66.50;28.67;;;3.10;99.90;;;;;;5030252;28;20025;-72
2020/12/05 07:33:24;;;;;;;58.80;26.42;;;3.10;99.90;;;;;;5033790;28;20079;-72
2020/12/05 07:36:04;;;;;;;52.00;24.60;;;3.10;99.90;;;;;;5029805;28;20032;-72
2020/12/05 07:38:33;;;;;;;52.35;25.00;;;3.10;99.90;;;;;;5035387;28;20033;-72
2020/12/05 07:40:59;;;;;;;57.17;26.35;;;3.10;99.90;;;;;;5035257;28;20053;-72
2020/12/05 07:43:28;;;;;;;55.13;24.70;;;3.10;99.90;;;;;;5035281;28;20056;-72
2020/12/05 07:45:53;;;;;;;90.72;28.70;;;3.10;99.90;;;;;;5035637;28;20111;-72
2020/12/05 07:48:21;;;;;;;60.75;26.42;;;3.10;99.90;;;;;;5046873;28;20495;-72
2020/12/05 07:50:47;;;;;;;63.78;25.15;;;3.10;99.90;;;;;;5036358;28;20033;-72
2020/12/05 07:53:26;;;;;;;51.78;24.75;;;3.10;99.90;;;;;;5029018;28;20040;-72
2020/12/05 07:55:54;;;;;;;60.30;25.73;;;3.20;99.90;;;;;;5032236;28;20464;-72
2020/12/05 07:58:22;;;;;;;61.10;24.83;;;3.20;99.90;;;;;;5031355;28;20470;-73
2020/12/05 08:00:52;;;;;;;53.30;23.88;;;3.20;99.90;;;;;;5035067;28;20140;-71
2020/12/05 08:03:35;;;;;;;49.60;22.63;;;3.20;99.90;;;;;;5032233;28;20064;-72
2020/12/05 08:06:13;;;;;;;89.72;28.30;;;3.20;99.90;;;;;;5031440;28;20044;-73
2020/12/05 08:08:41;;;;;;;69.88;24.73;;;3.20;99.90;;;;;;5033952;28;20033;-72
2020/12/05 08:11:07;;;;;;;67.10;24.05;;;3.20;99.90;;;;;;5019916;28;20037;-72
2020/12/05 08:13:35;;;;;;;67.18;25.25;;;3.20;99.90;;;;;;5020044;28;20036;-72
2020/12/05 08:16:04;;;;;;;83.68;26.25;;;3.20;99.90;;;;;;5053296;28;20064;-72
2020/12/05 08:18:30;;;;;;;75.00;25.23;;;3.20;99.90;;;;;;5031442;28;20545;-73
2020/12/05 08:20:56;;;;;;;180.13;30.88;;;3.20;99.90;;;;;;5048580;28;20030;-72
2020/12/05 08:23:26;;;;;;;141.73;29.80;;;3.20;99.90;;;;;;5049448;28;20055;-72
2020/12/05 08:25:53;;;;;;;54.40;22.95;;;3.30;99.90;;;;;;5028275;28;20033;-73
2020/12/05 08:28:19;;;;;;;147.38;29.67;;;3.30;99.90;;;;;;5039181;28;20037;-72
2020/12/05 08:30:48;;;;;;;80.65;24.85;;;3.30;99.90;;;;;;5003555;28;20038;-72
2020/12/05 08:33:19;;;;;;;97.22;25.08;;;3.20;99.90;;;;;;5031070;28;20017;-72
2020/12/05 08:35:47;;;;;;;115.25;26.42;;;3.30;99.90;;;;;;5036253;28;20104;-72
2020/12/05 08:38:21;;;;;;;99.25;29.02;;;3.30;99.90;;;;;;5033781;28;20045;-72
2020/12/05 08:40:54;;;;;;;73.70;24.75;;;3.30;99.90;;;;;;5028931;28;20055;-72
2020/12/05 08:43:25;;;;;;;91.60;26.70;;;3.30;99.90;;;;;;5033226;28;20037;-72
2020/12/05 08:45:53;;;;;;;55.40;24.33;;;3.30;99.90;;;;;;5034427;28;20053;-73
2020/12/05 08:48:19;;;;;;;55.42;24.52;;;3.40;99.90;;;;;;5028338;28;20021;-72
2020/12/05 08:50:47;;;;;;;52.17;24.25;;;3.40;99.90;;;;;;5029208;28;20482;-72
2020/12/05 08:53:13;;;;;;;67.63;27.20;;;3.40;99.90;;;;;;5030592;28;20030;-72
2020/12/05 08:55:44;;;;;;;53.47;23.00;;;3.50;99.90;;;;;;5031678;28;20017;-72
2020/12/05 08:58:12;;;;;;;51.55;24.45;;;3.50;99.90;;;;;;5028193;28;20032;-73
2020/12/05 09:00:41;;;;;;;77.07;28.90;;;3.50;99.90;;;;;;5012829;28;20053;-73
2020/12/05 09:03:22;;;;;;;96.65;27.27;;;3.50;99.90;;;;;;5032665;28;20044;-73
2020/12/05 09:05:48;;;;;;;65.25;23.60;;;3.60;99.90;;;;;;5035450;28;20112;-73
2020/12/05 09:08:19;;;;;;;111.03;29.15;;;3.60;99.90;;;;;;5027904;28;20086;-73
2020/12/05 09:10:45;;;;;;;74.50;27.30;;;3.60;99.90;;;;;;5033169;28;20417;-73
2020/12/05 09:13:10;;;;;;;104.63;29.42;;;3.60;99.90;;;;;;5031590;28;20122;-73
2020/12/05 09:15:36;;;;;;;49.95;24.65;;;3.60;99.90;;;;;;5030405;28;20020;-73
2020/12/05 09:18:04;;;;;;;53.63;24.55;;;3.60;99.90;;;;;;5032475;28;20028;-73
2020/12/05 09:20:32;;;;;;;64.03;27.05;;;3.70;99.90;;;;;;5029650;28;20398;-73
2020/12/05 09:22:59;;;;;;;50.47;25.30;;;3.70;99.90;;;;;;5031748;28;20501;-73
2020/12/05 09:25:35;;;;;;;61.95;26.65;;;3.70;99.90;;;;;;5029553;28;20033;-73
2020/12/05 09:28:02;;;;;;;52.72;25.67;;;3.70;99.90;;;;;;5035755;28;20041;-73
2020/12/05 09:30:28;;;;;;;55.55;25.75;;;3.70;99.90;;;;;;5013807;28;20041;-71
2020/12/05 09:32:54;;;;;;;50.60;24.65;;;3.80;99.90;;;;;;5032657;28;20049;-73
2020/12/05 09:35:23;;;;;;;70.75;28.05;;;3.80;99.90;;;;;;5029286;28;20056;-73
2020/12/05 09:37:52;;;;;;;56.58;25.10;;;3.80;99.90;;;;;;5027209;28;20029;-73
2020/12/05 09:40:19;;;;;;;64.45;25.20;;;3.80;99.90;;;;;;5031716;28;20036;-73
2020/12/05 09:42:45;;;;;;;59.70;25.83;;;3.90;99.90;;;;;;5048178;28;20040;-73
2020/12/05 09:45:13;;;;;;;58.03;22.58;;;3.90;99.90;;;;;;5028960;28;20111;-73
2020/12/05 09:47:42;;;;;;;89.68;27.05;;;3.90;99.90;;;;;;5030867;28;20061;-73
2020/12/05 09:50:10;;;;;;;75.57;19.65;;;3.90;99.90;;;;;;4686500;28;10000454;-73
2020/12/05 09:52:36;;;;;;;91.15;25.13;;;3.90;99.90;;;;;;5034464;28;20080;-73
2020/12/05 09:55:02;;;;;;;102.57;24.13;;;3.90;99.90;;;;;;5025688;28;20061;-73
2020/12/05 09:57:33;;;;;;;64.93;23.58;;;3.90;99.90;;;;;;5016836;28;20035;-73
2020/12/05 09:59:59;;;;;;;52.00;21.35;;;4.00;99.90;;;;;;5014153;28;20064;-73
2020/12/05 10:02:27;;;;;;;72.82;22.27;;;4.00;99.90;;;;;;5030962;28;20409;-74
2020/12/05 10:04:52;;;;;;;153.52;25.23;;;4.00;99.90;;;;;;5029475;28;20025;-71
2020/12/05 10:07:18;;;;;;;107.25;24.80;;;4.00;99.90;;;;;;5030428;28;20453;-71
2020/12/05 10:09:44;;;;;;;85.85;23.30;;;4.10;99.90;;;;;;5031667;28;20631;-71
2020/12/05 10:12:14;;;;;;;275.75;31.95;;;4.10;99.90;;;;;;5028242;28;20408;-71
2020/12/05 10:14:42;;;;;;;270.90;31.67;;;4.10;99.90;;;;;;5031004;28;20018;-72
2020/12/05 10:17:10;;;;;;;225.15;28.55;;;4.10;99.90;;;;;;5031270;28;20025;-71
2020/12/05 10:19:36;;;;;;;171.20;26.02;;;4.10;99.90;;;;;;5031051;28;20067;-71
2020/12/05 10:22:04;;;;;;;73.15;23.23;;;4.10;99.90;;;;;;5032883;28;20029;-71
2020/12/05 10:24:29;;;;;;;184.18;27.60;;;4.10;99.90;;;;;;5027675;28;20064;-71
2020/12/05 10:26:57;;;;;;;75.47;22.92;;;4.10;99.90;;;;;;5025457;28;20065;-71
2020/12/05 10:29:23;;;;;;;76.65;23.00;;;4.20;99.90;;;;;;5029480;28;20040;-72
2020/12/05 10:31:50;;;;;;;289.55;31.88;;;4.10;99.90;;;;;;5048043;28;20108;-71
2020/12/05 10:34:16;;;;;;;228.20;29.48;;;4.20;99.90;;;;;;5032861;28;20090;-71
2020/12/05 10:36:41;;;;;;;211.20;28.33;;;4.20;99.90;;;;;;5035273;28;20033;-71
2020/12/05 10:39:07;;;;;;;72.82;24.02;;;4.20;99.90;;;;;;5046783;28;20030;-71
2020/12/05 10:41:34;;;;;;;48.25;19.38;;;4.20;99.90;;;;;;5028083;28;20042;-71
2020/12/05 10:44:00;;;;;;;104.55;24.25;;;4.20;99.90;;;;;;5027945;28;20034;-72
2020/12/05 10:46:28;;;;;;;91.43;24.23;;;4.20;99.90;;;;;;5029645;28;20040;-71
2020/12/05 10:48:53;;;;;;;114.70;22.90;;;4.30;99.90;;;;;;5031486;28;20479;-71
2020/12/05 10:51:19;;;;;;;124.53;23.75;;;4.20;99.90;;;;;;5029898;28;20115;-72
2020/12/05 10:53:45;;;;;;;276.02;28.85;;;4.30;99.90;;;;;;5029610;28;20035;-71
2020/12/05 10:56:11;;;;;;;221.65;29.90;;;4.30;99.90;;;;;;5033407;28;20018;-71
2020/12/05 10:58:36;;;;;;;96.93;25.20;;;4.20;99.90;;;;;;5030578;28;20086;-71
2020/12/05 11:01:02;;;;;;;100.13;23.67;;;4.20;99.90;;;;;;5031659;28;20038;-71
2020/12/05 11:03:30;;;;;;;277.02;31.33;;;4.30;99.90;;;;;;5027029;28;20029;-71
2020/12/05 11:05:56;;;;;;;153.45;26.92;;;4.30;99.90;;;;;;5029829;28;20034;-71
2020/12/05 11:08:22;;;;;;;88.63;24.25;;;4.30;99.90;;;;;;5032694;28;20055;-72
2020/12/05 11:10:50;;;;;;;68.35;22.95;;;4.30;99.90;;;;;;5030369;28;20021;-71
2020/12/05 11:13:15;;;;;;;348.52;35.00;;;4.30;99.90;;;;;;5029434;28;20409;-71
2020/12/05 11:15:41;;;;;;;155.82;28.92;;;4.30;99.90;;;;;;5033530;28;20454;-71
2020/12/05 11:18:07;;;;;;;183.90;30.00;;;4.40;99.90;;;;;;5039104;28;20043;-71
2020/12/05 11:20:32;;;;;;;221.43;31.83;;;4.40;99.90;;;;;;5031626;28;20030;-71
2020/12/05 11:23:01;;;;;;;266.83;33.45;;;4.40;99.90;;;;;;5037940;28;20036;-71
2020/12/05 11:25:28;;;;;;;203.00;31.00;;;4.40;99.90;;;;;;5033377;28;20032;-71
2020/12/05 11:27:54;;;;;;;235.90;31.92;;;4.40;99.90;;;;;;5032789;28;20095;-71
2020/12/05 11:30:22;;;;;;;119.50;27.20;;;4.40;99.90;;;;;;5031872;28;20025;-71
2020/12/05 11:32:47;;;;;;;94.68;25.60;;;4.50;99.90;;;;;;5032986;28;20040;-71
2020/12/05 11:35:13;;;;;;;171.30;27.98;;;4.50;99.90;;;;;;5031998;28;20650;-71
2020/12/05 11:37:41;;;;;;;154.02;29.77;;;4.50;99.90;;;;;;5020630;28;20024;-71
2020/12/05 11:40:06;;;;;;;109.75;29.45;;;4.60;99.90;;;;;;5033913;28;20528;-71
2020/12/05 11:42:32;;;;;;;108.07;27.38;;;4.60;99.90;;;;;;5034359;28;20036;-71
2020/12/05 11:45:04;;;;;;;58.60;24.55;;;4.70;99.90;;;;;;5032811;28;20477;-71
2020/12/05 11:47:32;;;;;;;46.17;21.92;;;4.70;99.90;;;;;;5030915;28;20037;-71
2020/12/05 11:49:57;;;;;;;65.50;25.15;;;4.70;99.90;;;;;;5029895;28;20120;-72
2020/12/05 11:52:23;;;;;;;58.67;24.42;;;4.80;99.90;;;;;;5029889;28;20112;-71
2020/12/05 11:54:49;;;;;;;50.30;23.00;;;4.80;99.90;;;;;;5030943;28;20065;-71
2020/12/05 11:57:17;;;;;;;48.15;22.75;;;4.90;99.90;;;;;;5029972;28;20112;-71
2020/12/05 11:59:43;;;;;;;41.75;20.48;;;4.90;99.90;;;;;;5033698;28;20029;-71
2020/12/05 12:02:11;;;;;;;48.03;22.17;;;5.00;99.90;;;;;;5029587;28;20650;-71
2020/12/05 12:04:40;;;;;;;41.58;19.35;;;5.00;99.90;;;;;;5032591;28;20037;-71
2020/12/05 12:07:07;;;;;;;42.20;21.42;;;5.00;99.90;;;;;;5028683;28;20022;-71
2020/12/05 12:09:33;;;;;;;40.90;19.88;;;5.00;99.90;;;;;;5026818;28;20024;-71
2020/12/05 12:11:58;;;;;;;37.55;20.15;;;5.00;99.90;;;;;;5032239;28;20021;-71
2020/12/05 12:14:26;;;;;;;40.95;20.45;;;5.10;99.90;;;;;;4681713;28;10000238;-71
2020/12/05 12:16:52;;;;;;;43.67;21.45;;;5.10;99.90;;;;;;5027069;28;20033;-71
2020/12/05 12:19:20;;;;;;;37.88;19.83;;;5.10;99.90;;;;;;5016819;28;20037;-71
2020/12/05 12:21:48;;;;;;;43.33;22.42;;;5.10;99.90;;;;;;5031680;28;20037;-72
2020/12/05 12:24:13;;;;;;;43.10;21.38;;;5.10;99.90;;;;;;5033238;28;20090;-71
2020/12/05 12:26:43;;;;;;;61.00;24.90;;;5.10;99.90;;;;;;5027628;28;20412;-71
2020/12/05 12:29:09;;;;;;;60.35;25.38;;;5.20;99.90;;;;;;5026810;28;20048;-71
2020/12/05 12:31:35;;;;;;;51.00;23.75;;;5.20;99.90;;;;;;5029590;28;20646;-71
2020/12/05 12:34:00;;;;;;;47.03;23.23;;;5.20;99.90;;;;;;5027133;28;20040;-71
2020/12/05 12:36:26;;;;;;;44.85;22.48;;;5.20;99.90;;;;;;5029023;28;20021;-71
2020/12/05 12:38:52;;;;;;;178.70;35.55;;;5.20;99.90;;;;;;5025682;28;20032;-71
2020/12/05 12:41:18;;;;;;;65.20;29.88;;;5.20;99.90;;;;;;5024868;28;20040;-71